• Join FlightAware (Why Join?)
  • Login
  • US Flag 
03:16AM EST


 

Airport Tracker/Info


-or-


 

Live Flight TrackerFlight Track Log ✈ GEC8221 ✈ 22-Jun-2013 ✈ MMMX / MEX - KDFW

Flight Track Log - Related Links

Times and Time Zones

All times are in EDT time to prevent confusion due to time zone crossing. See the GEC8221 flight status page for this flight to view local times or setup timezone preferences in your user account.

Time Position Orientation Groundspeed Altitude Reporting Facility
EDT Latitude Longitude Course Direction KTS MPH feet Rate Location/Type
07:38PM 25.7133 -97.5278 North 456 525 37,000  Level Houston Center
07:44PM 26.3960 -97.4880 345° North 462 532 37,000  Level FlightAware
07:45PM 26.4900 -97.5150 346° North 459 528 37,000  Level FlightAware
07:45PM 26.5780 -97.5410 345° North 456 525 37,000 -120 Level FlightAware
07:46PM 26.6670 -97.5670 345° North 453 521 36,900 -120 Descending FlightAware
07:47PM 26.7480 -97.5900 346° North 452 520 36,900 60 Level FlightAware
07:47PM 26.8370 -97.6160 345° North 454 522 37,000 60 Climbing FlightAware
07:48PM 26.9200 -97.6410 345° North 453 521 37,000  Level FlightAware
07:49PM 27.0000 -97.6640 346° North 454 522 37,000  Level FlightAware
07:49PM 27.0900 -97.6910 345° North 455 524 37,000  Level FlightAware
07:50PM 27.1690 -97.7140 345° North 456 525 37,000  Level FlightAware
07:51PM 27.2580 -97.7400 345° North 456 525 37,000  Level FlightAware
07:52PM 27.3440 -97.7660 345° North 457 526 37,000 -120 Level FlightAware
07:52PM 27.4340 -97.7920 346° North 460 529 36,900  Descending FlightAware
07:53PM 27.5160 -97.8170 345° North 462 532 37,000 60 Climbing FlightAware
07:54PM 27.6080 -97.8440 345° North 461 531 37,000  Level FlightAware
07:54PM 27.6860 -97.8670 345° North 461 531 37,000  Level FlightAware
07:55PM 27.7800 -97.8950 345° North 457 526 37,000  Level FlightAware
07:56PM 27.8730 -97.9230 345° North 455 524 37,000 -120 Level FlightAware
07:56PM 27.9560 -97.9480 345° North 453 521 36,900 -120 Descending FlightAware
07:57PM 28.0380 -97.9720 346° North 454 522 36,900 60 Level FlightAware
07:58PM 28.1230 -97.9980 345° North 457 526 37,000 60 Climbing FlightAware
07:59PM 28.2410 -98.0330 345° North 457 526 37,000  Level FlightAware
08:00PM 28.3290 -98.0600 345° North 458 527 37,000  Level FlightAware
08:00PM 28.4100 -98.0840 345° North 459 528 37,000  Level FlightAware
08:01PM 28.4940 -98.1100 345° North 459 528 37,000  Level FlightAware
08:02PM 28.5830 -98.1370 345° North 459 528 37,000  Level FlightAware
08:02PM 28.6088 -98.1443 346° North 459 528 37,000  Level FlightAware ADS-B
08:02PM 28.6712 -98.1632 345° North 459 528 37,000  Level FlightAware ADS-B
08:03PM 28.7335 -98.1821 345° North 457 526 37,000  Level FlightAware ADS-B
08:03PM 28.7981 -98.2018 345° North 457 526 37,000  Level FlightAware ADS-B
08:04PM 28.8614 -98.2211 345° North 457 526 37,000  Level FlightAware ADS-B
08:04PM 28.8777 -98.2261 345° North 457 526 37,000  Level FlightAware ADS-B
08:04PM 28.9239 -98.2402 345° North 457 526 37,000  Level FlightAware ADS-B
08:05PM 28.9427 -98.2460 345° North 457 526 37,000 -240 Level FlightAware ADS-B
08:05PM 28.9873 -98.2596 345° North 457 526 36,900 -120 Descending FlightAware ADS-B
08:05PM 29.0494 -98.2785 345° North 457 526 36,900 60 Level FlightAware ADS-B
08:06PM 29.1113 -98.2974 345° North 458 527 37,000 60 Climbing FlightAware ADS-B
08:06PM 29.1747 -98.3169 345° North 461 531 37,000  Level FlightAware ADS-B
08:07PM 29.2370 -98.3359 345° North 462 532 37,000  Level FlightAware ADS-B
08:08PM 29.3119 -98.3590 345° North 463 533 37,000  Level FlightAware ADS-B
08:08PM 29.3757 -98.3785 345° North 463 533 37,000  Level FlightAware ADS-B
08:08PM 29.3773 -98.3791 342° North 463 533 37,000  Level FlightAware ADS-B
08:09PM 29.4403 -98.3985 345° North 463 533 37,000  Level FlightAware ADS-B
08:09PM 29.4506 -98.4017 345° North 463 533 37,000  Level FlightAware ADS-B
08:09PM 29.5117 -98.4205 345° North 462 532 37,000  Level FlightAware ADS-B
08:09PM 29.5525 -98.4331 345° North 460 529 37,000  Level FlightAware ADS-B
08:10PM 29.5788 -98.4412 345° North 462 532 37,000  Level FlightAware ADS-B
08:10PM 29.6020 -98.4479 346° North 460 529 37,000  Level FlightAware ADS-B
08:10PM 29.6192 -98.4515 350° North 460 529 37,000  Level FlightAware ADS-B
08:10PM 29.6272 -98.4528 352° North 462 532 37,000  Level FlightAware ADS-B
08:10PM 29.6349 -98.4538 354° North 462 532 37,000  Level FlightAware ADS-B
08:10PM 29.6559 -98.4553 356° North 464 534 37,000  Level FlightAware ADS-B
08:10PM 29.6671 -98.4554 360° North 465 535 37,000  Level FlightAware ADS-B
08:10PM 29.6722 -98.4554 360° North 465 535 37,000  Level FlightAware ADS-B
08:11PM 29.6968 -98.4535 North 466 536 37,000  Level FlightAware ADS-B
08:11PM 29.7049 -98.4524 North 467 537 37,000  Level FlightAware ADS-B
08:11PM 29.7735 -98.4424 North 467 537 37,000  Level FlightAware ADS-B
08:11PM 29.7945 -98.4394 North 467 537 37,000  Level FlightAware ADS-B
08:12PM 29.8595 -98.4300 North 465 535 37,000  Level FlightAware ADS-B
08:12PM 29.8727 -98.4280 North 465 535 37,000  Level FlightAware ADS-B
08:12PM 29.9251 -98.4203 North 463 533 37,000  Level FlightAware ADS-B
08:12PM 29.9378 -98.4184 North 463 533 37,000  Level FlightAware ADS-B
08:13PM 29.9892 -98.4109 North 462 532 37,000  Level FlightAware ADS-B
08:13PM 30.0074 -98.4083 North 461 531 37,000  Level FlightAware ADS-B
08:13PM 30.0536 -98.4015 North 461 531 37,000  Level FlightAware ADS-B
08:14PM 30.0806 -98.3976 North 460 529 37,000 -240 Level FlightAware ADS-B
08:14PM 30.1178 -98.3922 North 460 529 36,900  Descending FlightAware ADS-B
08:14PM 30.1843 -98.3825 North 460 529 37,000 120 Climbing FlightAware ADS-B
08:15PM 30.1984 -98.3804 North 461 531 37,000  Level FlightAware ADS-B
08:15PM 30.2491 -98.3728 North 465 535 37,000  Level FlightAware ADS-B
08:15PM 30.2718 -98.3694 North 466 536 37,000  Level FlightAware ADS-B
08:15PM 30.3147 -98.3630 North 467 537 37,000  Level FlightAware ADS-B
08:16PM 30.3447 -98.3585 North 467 537 37,000  Level FlightAware ADS-B
08:16PM 30.3818 -98.3531 North 469 540 37,000  Level FlightAware ADS-B
08:16PM 30.4326 -98.3455 North 469 540 37,000  Level FlightAware ADS-B
08:16PM 30.4477 -98.3433 North 469 540 37,000  Level FlightAware ADS-B
08:17PM 30.5007 -98.3354 North 469 540 37,000  Level FlightAware ADS-B
08:17PM 30.5231 -98.3321 North 468 539 37,000  Level FlightAware ADS-B
08:17PM 30.5669 -98.3256 North 468 539 37,000  Level FlightAware ADS-B
08:18PM 30.5888 -98.3224 North 468 539 37,000  Level FlightAware ADS-B
08:18PM 30.6339 -98.3157 North 468 539 37,000  Level FlightAware ADS-B
08:18PM 30.7026 -98.3055 North 468 539 37,000  Level FlightAware ADS-B
08:18PM 30.7094 -98.3045 North 467 537 37,000  Level FlightAware ADS-B
08:19PM 30.7751 -98.2947 North 467 537 37,000  Level FlightAware ADS-B
08:19PM 30.7773 -98.2944 North 467 537 37,000  Level FlightAware ADS-B
08:20PM 30.8520 -98.2830 North 467 537 37,000  Level FlightAware
08:20PM 30.8675 -98.2809 North 467 537 37,000  Level FlightAware ADS-B
08:20PM 30.8790 -98.2792 North 468 539 37,000  Level FlightAware ADS-B
08:20PM 30.9413 -98.2699 North 467 537 37,000  Level FlightAware ADS-B
08:20PM 30.9503 -98.2686 North 468 539 37,000  Level FlightAware ADS-B
08:21PM 31.0186 -98.2584 North 467 537 37,000  Level FlightAware ADS-B
08:22PM 31.1070 -98.2451 North 468 539 37,000  Level FlightAware ADS-B
08:22PM 31.1770 -98.2337 North 469 540 37,000 -360 Level FlightAware ADS-B
08:22PM 31.2129 -98.2202 18° North 477 549 36,700 -1,680 Descending FlightAware ADS-B
08:23PM 31.2729 -98.1863 26° Northeast 475 547 35,700 -2,040 Descending FlightAware ADS-B
08:23PM 31.3326 -98.1528 26° Northeast 466 536 34,700 -2,220 Descending FlightAware ADS-B
08:24PM 31.3933 -98.1186 26° Northeast 458 527 33,500 -2,460 Descending FlightAware ADS-B
08:24PM 31.4518 -98.0856 26° Northeast 457 526 32,200 -2,520 Descending FlightAware ADS-B
08:25PM 31.5124 -98.0515 26° Northeast 451 519 30,900 -2,820 Descending FlightAware ADS-B
08:26PM 31.5724 -98.0179 26° Northeast 457 526 29,200 -2,760 Descending FlightAware ADS-B
08:26PM 31.6740 -97.9609 26° Northeast 449 517 27,000 -2,400 Descending FlightAware ADS-B
08:27PM 31.7670 -97.9080 26° Northeast 437 503 25,000 -2,580 Descending FlightAware
08:28PM 31.8450 -97.8650 25° Northeast 435 501 23,000 -2,700 Descending FlightAware
08:28PM 31.9001 -97.8330 26° Northeast 424 488 21,800 -2,580 Descending FlightAware ADS-B
08:29PM 31.9970 -97.7780 26° Northeast 414 476 19,400 -2,700 Descending FlightAware
08:30PM 32.0640 -97.7400 26° Northeast 412 474 17,600 -2,400 Descending FlightAware
08:31PM 32.1310 -97.7020 26° Northeast 397 457 16,200 -2,100 Descending FlightAware
08:31PM 32.1910 -97.6680 26° Northeast 382 440 14,900 -2,400 Descending FlightAware
08:32PM 32.2660 -97.6250 26° Northeast 380 437 12,900 -2,160 Descending FlightAware
08:33PM 32.3290 -97.5880 26° Northeast 379 436 11,900 -1,200 Descending FlightAware
08:34PM 32.4030 -97.5460 26° Northeast 391 450 11,200 -600 Descending FlightAware
08:34PM 32.4700 -97.5030 28° Northeast 387 445 11,000 -120 Descending FlightAware
08:35PM 32.5270 -97.4370 44° Northeast 387 445 11,100  Climbing FlightAware
08:36PM 32.5790 -97.3750 45° Northeast 386 444 11,000 -120 Descending FlightAware
08:36PM 32.6270 -97.3190 44° Northeast 339 390 11,000  Level FlightAware
08:37PM 32.6740 -97.2620 46° Northeast 289 333 11,000  Level FlightAware
08:38PM 32.7080 -97.2200 46° Northeast 270 311 11,000  Level FlightAware
08:38PM 32.7480 -97.1760 43° Northeast 270 311 11,000 -120 Level FlightAware
08:39PM 32.7610 -97.1700 21° North 270 311 10,900 -840 Descending FlightAware
08:39PM 32.7830 -97.1690 North 267 307 10,600 -1,320 Descending FlightAware
08:40PM 32.8290 -97.1690 360° North 270 311 9,700 -1,380 Descending FlightAware
08:40PM 32.8670 -97.1670 North 269 310 9,100 -1,320 Descending FlightAware
08:41PM 32.8990 -97.1660 North 267 307 8,500 -1,320 Descending FlightAware
08:41PM 32.9350 -97.1660 360° North 268 308 7,900 -1,200 Descending FlightAware
08:41PM 32.9660 -97.1640 North 266 306 7,400 -1,200 Descending FlightAware
08:42PM 32.9960 -97.1580 10° North 264 304 6,900 -1,140 Descending FlightAware
08:43PM 33.0540 -97.1470 North 259 298 6,000 -1,380 Descending FlightAware
08:43PM 33.0800 -97.1330 24° Northeast 254 292 5,200 -1,860 Descending FlightAware
08:44PM 33.1010 -97.1010 52° Northeast 238 274 4,300 -1,740 Descending FlightAware
08:44PM 33.0970 -97.0680 98° East 210 242 3,500 -1,620 Descending FlightAware
08:44PM 33.0850 -97.0600 151° Southeast 204 235 3,200 -840 Descending FlightAware
08:45PM 33.0600 -97.0550 170° South 204 235 3,000 -300 Descending FlightAware
08:45PM 33.0430 -97.0540 177° South 189 217 3,000 -600 Level FlightAware
08:45PM 33.0230 -97.0540 180° South 175 201 2,600 -960 Descending FlightAware
08:46PM 33.0130 -97.0540 180° South 157 181 2,400 -840 Descending FlightAware
08:46PM 32.9890 -97.0540 180° South 155 178 2,000 -780 Descending FlightAware
08:47PM 32.9730 -97.0540 180° South 139 160 1,700 -420 Descending FlightAware
08:47PM 32.9520 -97.0540 180° South 138 159 1,600 -180 Descending FlightAware